Time;durP1;ratioP1;P1;durP2;ratioP2;P2;SDS_P1;SDS_P2;PMS_P1;PMS_P2;Temp;Humidity;BMP_temperature;BMP_pressure;BME280_temperature;BME280_humidity;BME280_pressure;Samples;Min_cycle;Max_cycle;Signal;HPM_P1;HPM_P2
2021/04/13 00:01:17;;;;;;;9.57;6.70;;;6.20;83.30;;;;;;4912670;29;20266;-82
2021/04/13 00:03:47;;;;;;;8.03;7.23;;;6.10;83.30;;;;;;4913602;29;20206;-84
2021/04/13 00:06:18;;;;;;;6.37;5.77;;;6.10;83.50;;;;;;4921537;28;21109;-82
2021/04/13 00:08:50;;;;;;;7.80;6.73;;;6.10;83.60;;;;;;4903151;29;20233;-81
2021/04/13 00:11:22;;;;;;;5.53;4.97;;;6.10;83.60;;;;;;4896826;29;20202;-81
2021/04/13 00:13:51;;;;;;;6.10;5.13;;;6.10;83.70;;;;;;4895778;29;20199;-82
2021/04/13 00:16:22;;;;;;;9.33;7.87;;;6.20;83.80;;;;;;4897127;29;20214;-84
2021/04/13 00:18:51;;;;;;;11.70;8.30;;;6.20;83.80;;;;;;4901069;29;20500;-82
2021/04/13 00:21:28;;;;;;;10.93;9.33;;;6.20;84.00;;;;;;4912941;29;20212;-82
2021/04/13 00:23:59;;;;;;;9.80;8.80;;;6.20;84.00;;;;;;4895519;29;20225;-81
2021/04/13 00:26:30;;;;;;;7.23;5.80;;;6.20;83.90;;;;;;4898085;29;20207;-83
2021/04/13 00:29:00;;;;;;;10.73;6.00;;;6.20;84.10;;;;;;4899227;29;20226;-82
2021/04/13 00:31:40;;;;;;;9.43;5.70;;;6.10;84.00;;;;;;4913972;29;20677;-81
2021/04/13 00:34:13;;;;;;;6.23;5.63;;;6.10;84.20;;;;;;4900504;29;21207;-83
2021/04/13 00:36:42;;;;;;;7.53;5.90;;;6.20;84.40;;;;;;4895632;29;20631;-82
2021/04/13 00:39:19;;;;;;;7.23;6.53;;;6.10;84.20;;;;;;4912047;29;20493;-82
2021/04/13 00:42:09;;;;;;;9.37;7.60;;;6.10;84.30;;;;;;4920361;29;20226;-84
2021/04/13 00:44:42;;;;;;;14.03;12.63;;;6.10;84.20;;;;;;4919982;28;20226;-84
2021/04/13 00:47:15;;;;;;;7.73;6.93;;;6.00;84.20;;;;;;4908249;29;20210;-81
2021/04/13 00:49:48;;;;;;;9.37;8.17;;;6.10;84.20;;;;;;4924071;29;20229;-81
2021/04/13 00:52:20;;;;;;;8.97;7.80;;;6.30;84.20;;;;;;4922463;29;20203;-82
2021/04/13 00:54:50;;;;;;;6.73;5.23;;;6.10;84.10;;;;;;4920428;29;20583;-82
2021/04/13 00:57:22;;;;;;;4.70;4.30;;;6.10;83.70;;;;;;4897587;29;20214;-82
2021/04/13 00:59:51;;;;;;;6.40;4.30;;;6.00;83.70;;;;;;4896015;29;20205;-82
2021/04/13 01:02:23;;;;;;;6.73;4.00;;;6.00;83.60;;;;;;4896823;29;20218;-81
2021/04/13 01:04:55;;;;;;;7.27;6.00;;;5.90;83.80;;;;;;4902300;29;20186;-83
2021/04/13 01:07:32;;;;;;;6.03;4.60;;;5.90;83.80;;;;;;4920255;29;20197;-82
2021/04/13 01:10:09;;;;;;;5.53;3.67;;;5.90;84.10;;;;;;4917343;29;20504;-82
2021/04/13 01:12:40;;;;;;;3.10;2.80;;;5.90;83.60;;;;;;4921852;29;20211;-82
2021/04/13 01:15:10;;;;;;;4.23;3.30;;;5.90;83.40;;;;;;4919710;29;20202;-82
2021/04/13 01:17:39;;;;;;;3.83;3.20;;;5.80;83.50;;;;;;4914546;29;21110;-82
2021/04/13 01:20:15;;;;;;;4.20;2.90;;;5.80;83.50;;;;;;4906976;29;20222;-82
2021/04/13 01:22:50;;;;;;;4.60;4.20;;;5.80;83.50;;;;;;4901397;29;20210;-83
2021/04/13 01:25:20;;;;;;;4.20;2.70;;;5.80;83.40;;;;;;4908353;29;20199;-82
2021/04/13 01:27:53;;;;;;;6.47;3.50;;;5.80;83.50;;;;;;4897019;29;20201;-83
2021/04/13 01:30:22;;;;;;;5.00;4.20;;;5.80;83.50;;;;;;4893681;29;20302;-81
2021/04/13 01:32:50;;;;;;;4.70;4.23;;;5.80;83.60;;;;;;4896897;29;20214;-81
2021/04/13 01:35:29;;;;;;;7.60;6.23;;;5.80;84.00;;;;;;4896048;29;20218;-82
2021/04/13 01:38:04;;;;;;;4.60;4.13;;;5.70;84.20;;;;;;4896100;29;20210;-83
2021/04/13 01:40:42;;;;;;;7.60;6.43;;;5.70;84.30;;;;;;4896561;29;20210;-82
2021/04/13 01:43:13;;;;;;;7.47;6.33;;;5.70;84.30;;;;;;4900971;29;20203;-83
2021/04/13 01:45:41;;;;;;;9.23;7.87;;;5.60;84.50;;;;;;4922829;29;20203;-84
2021/04/13 01:48:12;;;;;;;18.53;13.37;;;5.70;84.60;;;;;;4915467;29;20241;-82
2021/04/13 01:50:41;;;;;;;18.10;14.47;;;5.60;84.60;;;;;;4898837;29;21022;-81
2021/04/13 01:53:12;;;;;;;19.60;15.43;;;5.60;84.60;;;;;;4893788;29;20236;-81
2021/04/13 01:55:51;;;;;;;17.73;13.90;;;5.60;84.50;;;;;;4897695;29;20216;-83
2021/04/13 01:58:25;;;;;;;14.50;12.43;;;5.60;84.50;;;;;;4898847;29;20214;-81
2021/04/13 02:01:00;;;;;;;11.87;9.50;;;5.60;84.40;;;;;;4889730;29;20206;-84
2021/04/13 02:03:30;;;;;;;15.73;11.57;;;5.60;84.60;;;;;;4895295;29;20496;-84
2021/04/13 02:06:02;;;;;;;11.33;9.00;;;5.60;84.70;;;;;;4890213;29;20334;-83
2021/04/13 02:08:37;;;;;;;8.33;7.23;;;5.50;84.40;;;;;;4894471;29;20732;-81
2021/04/13 02:11:09;;;;;;;8.70;7.50;;;5.50;84.50;;;;;;4899141;29;20522;-81
2021/04/13 02:13:44;;;;;;;10.27;9.20;;;5.50;84.60;;;;;;4920250;29;20207;-81
2021/04/13 02:16:18;;;;;;;10.00;9.00;;;5.60;84.60;;;;;;4898913;29;20494;-82
2021/04/13 02:18:48;;;;;;;8.93;8.07;;;5.40;84.40;;;;;;4910999;29;20221;-80
2021/04/13 02:21:18;;;;;;;10.43;8.07;;;5.50;84.40;;;;;;4900879;29;20632;-82
2021/04/13 02:23:50;;;;;;;6.50;5.83;;;5.40;84.20;;;;;;4892887;29;20214;-82
2021/04/13 02:26:19;;;;;;;6.00;5.20;;;5.50;84.10;;;;;;4891988;29;20214;-82
2021/04/13 02:28:49;;;;;;;8.13;5.87;;;5.50;84.20;;;;;;4896867;29;20230;-82
2021/04/13 02:31:36;;;;;;;5.93;4.27;;;5.40;84.00;;;;;;4890228;29;20305;-81
2021/04/13 02:34:12;;;;;;;9.53;7.03;;;5.40;84.00;;;;;;4900239;29;20209;-81
2021/04/13 02:36:40;;;;;;;6.30;5.80;;;5.40;83.90;;;;;;4899459;29;20399;-81
2021/04/13 02:39:12;;;;;;;9.53;8.43;;;5.40;83.80;;;;;;4911739;29;20220;-81
2021/04/13 02:41:48;;;;;;;11.47;9.17;;;5.40;83.70;;;;;;4918029;29;20199;-82
2021/04/13 02:44:21;;;;;;;13.77;12.37;;;5.30;83.80;;;;;;4925438;29;20205;-81
2021/04/13 02:46:51;;;;;;;10.33;9.30;;;5.30;83.80;;;;;;4897178;29;20773;-83
2021/04/13 02:49:21;;;;;;;12.10;10.83;;;5.30;83.60;;;;;;4895744;29;20647;-82
2021/04/13 02:51:52;;;;;;;13.37;11.73;;;5.40;83.80;;;;;;4904732;29;20576;-80
2021/04/13 02:54:22;;;;;;;13.20;10.23;;;5.30;83.80;;;;;;4895442;29;20604;-81
2021/04/13 02:56:52;;;;;;;15.67;13.30;;;5.30;83.70;;;;;;4899008;29;20968;-82
2021/04/13 02:59:24;;;;;;;16.93;13.40;;;5.30;83.70;;;;;;4900465;29;20521;-81
2021/04/13 03:01:59;;;;;;;12.97;11.57;;;5.40;83.60;;;;;;4901348;29;20209;-82
2021/04/13 03:04:28;;;;;;;16.37;14.27;;;5.40;83.50;;;;;;4905572;29;20206;-83
2021/04/13 03:06:58;;;;;;;16.03;13.13;;;5.30;83.70;;;;;;4902134;29;20205;-80
2021/04/13 03:09:33;;;;;;;16.40;12.90;;;5.30;83.70;;;;;;4908248;29;20697;-82
2021/04/13 03:12:04;;;;;;;15.03;12.97;;;5.30;84.00;;;;;;4906896;29;20233;-82
2021/04/13 03:14:37;;;;;;;18.07;13.13;;;5.30;84.30;;;;;;4904825;29;20215;-81
2021/04/13 03:17:08;;;;;;;17.30;13.17;;;5.30;84.80;;;;;;4902570;29;20214;-81
2021/04/13 03:19:36;;;;;;;13.47;10.20;;;5.20;85.20;;;;;;4895562;29;20224;-81
2021/04/13 03:22:06;;;;;;;12.10;9.00;;;5.10;85.20;;;;;;4902382;29;20205;-83
2021/04/13 03:24:37;;;;;;;11.67;7.40;;;5.00;85.30;;;;;;4896860;29;20734;-82
2021/04/13 03:27:09;;;;;;;9.37;6.17;;;5.00;85.90;;;;;;4897593;29;20204;-82
2021/04/13 03:29:45;;;;;;;8.50;6.07;;;4.90;86.40;;;;;;4903732;29;20252;-80
2021/04/13 03:32:15;;;;;;;10.67;6.70;;;4.80;86.40;;;;;;4905510;29;20201;-82
2021/04/13 03:34:44;;;;;;;9.57;7.33;;;4.70;86.40;;;;;;4917305;29;20206;-81
2021/04/13 03:37:14;;;;;;;7.77;6.30;;;4.70;86.90;;;;;;4894428;29;20651;-82
2021/04/13 03:39:45;;;;;;;9.20;7.03;;;4.70;86.70;;;;;;4898914;29;20272;-81
2021/04/13 03:42:16;;;;;;;8.83;7.60;;;4.60;87.20;;;;;;4898087;29;20508;-83
2021/04/13 03:44:45;;;;;;;9.07;5.93;;;4.60;87.20;;;;;;4898324;29;20205;-81
2021/04/13 03:47:19;;;;;;;6.33;5.37;;;4.60;87.50;;;;;;4899460;29;20271;-82
2021/04/13 03:49:49;;;;;;;7.73;6.30;;;4.50;87.80;;;;;;4898644;29;20246;-82
2021/04/13 03:52:21;;;;;;;12.57;9.47;;;4.40;88.10;;;;;;4897322;29;20289;-81
2021/04/13 03:54:50;;;;;;;10.07;7.87;;;4.50;88.40;;;;;;4913147;29;20569;-82
2021/04/13 03:57:29;;;;;;;13.23;8.57;;;4.40;88.80;;;;;;4909983;29;21276;-81
2021/04/13 04:00:00;;;;;;;17.10;10.80;;;4.40;89.20;;;;;;4907628;29;20271;-83
2021/04/13 04:02:28;;;;;;;17.63;12.83;;;4.40;89.30;;;;;;4893693;29;20242;-82
2021/04/13 04:05:10;;;;;;;19.10;12.90;;;4.40;89.40;;;;;;4907318;29;20552;-81
2021/04/13 04:07:43;;;;;;;21.70;16.40;;;4.40;89.40;;;;;;4916814;29;20365;-84
2021/04/13 04:10:32;;;;;;;17.43;12.53;;;4.40;89.80;;;;;;4906194;29;20230;-81
2021/04/13 04:13:02;;;;;;;18.97;13.70;;;4.30;89.40;;;;;;4916213;29;20210;-83
2021/04/13 04:15:41;;;;;;;21.77;15.70;;;4.30;89.80;;;;;;4901666;29;20204;-81
2021/04/13 04:18:17;;;;;;;20.50;15.40;;;4.20;90.20;;;;;;4901689;29;20222;-81
2021/04/13 04:20:45;;;;;;;21.30;16.07;;;4.20;90.40;;;;;;4916732;29;20219;-84
2021/04/13 04:23:23;;;;;;;25.27;18.63;;;4.20;90.30;;;;;;4919127;29;20214;-83
2021/04/13 04:25:56;;;;;;;26.10;19.67;;;4.20;90.60;;;;;;4895533;29;20532;-83
2021/04/13 04:28:27;;;;;;;25.90;18.23;;;4.20;90.60;;;;;;4897859;29;20220;-84
2021/04/13 04:31:33;;;;;;;17.67;12.83;;;4.30;90.50;;;;;;4898247;29;20208;-81
2021/04/13 04:34:41;;;;;;;20.50;15.93;;;4.20;90.20;;;;;;4897305;29;20207;-82
2021/04/13 04:37:21;;;;;;;9.23;6.97;;;4.30;90.60;;;;;;4894724;29;20247;-82
2021/04/13 04:40:18;;;;;;;11.53;9.10;;;4.20;90.80;;;;;;4900867;29;20425;-82
2021/04/13 04:42:52;;;;;;;13.27;8.60;;;4.20;90.60;;;;;;4908827;29;20266;-81
2021/04/13 04:45:33;;;;;;;12.70;8.83;;;4.20;90.90;;;;;;4906227;29;20214;-82
2021/04/13 04:48:19;;;;;;;11.63;7.23;;;4.10;90.80;;;;;;4910637;29;20267;-82
2021/04/13 04:50:48;;;;;;;14.20;7.60;;;4.10;91.10;;;;;;4907522;29;20625;-82
2021/04/13 04:53:16;;;;;;;8.67;5.33;;;4.10;91.20;;;;;;4913973;29;20204;-82
2021/04/13 04:55:44;;;;;;;7.40;5.57;;;4.00;91.10;;;;;;4909785;29;20211;-83
2021/04/13 04:58:12;;;;;;;9.07;6.63;;;4.20;91.10;;;;;;4913155;29;20485;-81
2021/04/13 05:00:39;;;;;;;10.00;7.07;;;4.10;91.20;;;;;;4905519;29;20211;-81
2021/04/13 05:03:08;;;;;;;8.70;5.90;;;3.90;91.30;;;;;;4902918;29;20206;-81
2021/04/13 05:05:36;;;;;;;8.30;6.70;;;3.90;91.40;;;;;;4889774;29;20694;-82
2021/04/13 05:08:04;;;;;;;7.67;5.00;;;3.90;91.40;;;;;;4894463;29;20437;-82
2021/04/13 05:10:32;;;;;;;9.27;6.60;;;3.80;91.80;;;;;;4892739;29;20234;-82
2021/04/13 05:13:00;;;;;;;10.00;6.57;;;4.00;92.00;;;;;;4905889;29;20231;-82
2021/04/13 05:15:28;;;;;;;6.67;5.67;;;3.90;92.10;;;;;;4904722;29;20270;-82
2021/04/13 05:17:56;;;;;;;9.47;6.57;;;3.80;92.00;;;;;;4838870;29;2317062;-81
2021/04/13 05:20:24;;;;;;;11.67;7.20;;;3.80;92.20;;;;;;4918144;29;20346;-84
2021/04/13 05:22:52;;;;;;;12.60;7.53;;;3.80;92.40;;;;;;4917348;29;20262;-81
2021/04/13 05:25:20;;;;;;;10.50;6.73;;;3.80;92.40;;;;;;4916065;28;20207;-81
2021/04/13 05:27:48;;;;;;;6.17;5.00;;;3.80;92.40;;;;;;4899571;29;20741;-83
2021/04/13 05:30:18;;;;;;;13.13;7.57;;;3.90;92.60;;;;;;4895193;29;20312;-83
2021/04/13 05:32:47;;;;;;;12.57;7.23;;;3.80;92.90;;;;;;4890316;29;20280;-83
2021/04/13 05:35:15;;;;;;;12.10;7.73;;;3.80;92.90;;;;;;4892729;29;21132;-82
2021/04/13 05:37:44;;;;;;;12.37;6.37;;;3.80;92.90;;;;;;4891220;29;20790;-83
2021/04/13 05:40:16;;;;;;;7.40;6.37;;;3.80;93.20;;;;;;4888068;29;20221;-83
2021/04/13 05:42:44;;;;;;;9.77;6.80;;;3.80;93.20;;;;;;4892184;29;20220;-82
2021/04/13 05:45:15;;;;;;;11.30;7.13;;;3.90;93.20;;;;;;4889007;29;20211;-81
2021/04/13 05:47:43;;;;;;;11.37;8.13;;;3.80;93.60;;;;;;4890050;29;20365;-81
2021/04/13 05:50:19;;;;;;;12.27;7.13;;;3.80;94.10;;;;;;4893618;29;20254;-81
2021/04/13 05:52:48;;;;;;;11.03;6.90;;;3.80;94.00;;;;;;4894792;29;20293;-83
2021/04/13 05:55:17;;;;;;;13.37;9.07;;;3.80;93.80;;;;;;4905683;29;20213;-82
2021/04/13 05:57:48;;;;;;;14.10;8.47;;;3.80;94.20;;;;;;4889618;29;20544;-82
2021/04/13 06:00:18;;;;;;;13.93;9.57;;;3.80;94.80;;;;;;4891746;29;20636;-82
2021/04/13 06:02:46;;;;;;;15.33;8.70;;;3.90;95.40;;;;;;4885863;29;20328;-81
2021/04/13 06:05:18;;;;;;;12.77;9.53;;;3.90;95.70;;;;;;4887020;29;20211;-83
2021/04/13 06:07:46;;;;;;;17.47;10.67;;;3.90;95.90;;;;;;4911332;29;20216;-83
2021/04/13 06:10:16;;;;;;;16.93;11.70;;;3.90;95.30;;;;;;4902639;29;20228;-82
2021/04/13 06:12:48;;;;;;;14.77;11.63;;;3.80;95.30;;;;;;4892463;29;20564;-83
2021/04/13 06:15:18;;;;;;;20.40;14.43;;;3.80;95.00;;;;;;4886881;29;20650;-83
2021/04/13 06:17:46;;;;;;;20.97;16.30;;;3.80;95.00;;;;;;4893346;29;20593;-80
2021/04/13 06:20:16;;;;;;;18.80;14.27;;;3.70;95.50;;;;;;4901497;29;20217;-83
2021/04/13 06:22:45;;;;;;;24.97;16.73;;;3.80;95.40;;;;;;4892277;29;20218;-82
2021/04/13 06:25:17;;;;;;;26.83;18.10;;;3.70;96.10;;;;;;4893331;29;20211;-80
2021/04/13 06:27:45;;;;;;;28.30;19.97;;;3.90;96.20;;;;;;4887762;29;20211;-81
2021/04/13 06:30:14;;;;;;;24.60;17.60;;;3.80;96.40;;;;;;4885201;29;20243;-82
2021/04/13 06:32:42;;;;;;;13.10;8.73;;;3.80;97.00;;;;;;4887801;29;20209;-82
2021/04/13 06:35:10;;;;;;;11.07;8.17;;;3.90;97.60;;;;;;4866933;29;20218;-83
2021/04/13 06:37:41;;;;;;;11.50;7.97;;;3.80;96.60;;;;;;4889650;29;20282;-82
2021/04/13 06:40:15;;;;;;;13.87;10.87;;;3.80;96.50;;;;;;4888664;29;20216;-81
2021/04/13 06:43:05;;;;;;;10.47;8.03;;;3.70;96.20;;;;;;4891354;29;20210;-80
2021/04/13 06:45:45;;;;;;;11.57;8.57;;;3.70;96.80;;;;;;4883830;29;20222;-83
2021/04/13 06:48:30;;;;;;;17.40;11.27;;;3.70;97.40;;;;;;4887865;29;20348;-83
2021/04/13 06:51:06;;;;;;;16.07;11.53;;;3.70;97.30;;;;;;4891558;29;20324;-81
2021/04/13 06:53:47;;;;;;;14.53;12.17;;;3.80;98.20;;;;;;4883266;29;20282;-82
2021/04/13 06:56:46;;;;;;;25.17;18.00;;;3.80;97.80;;;;;;4880506;29;20217;-79
2021/04/13 06:59:35;;;;;;;28.00;21.53;;;3.80;98.00;;;;;;4815916;29;20330;-82
2021/04/13 07:02:07;;;;;;;30.20;22.77;;;3.80;98.20;;;;;;4891617;29;20435;-80
2021/04/13 07:04:40;;;;;;;21.13;15.33;;;3.80;98.10;;;;;;4886333;29;20675;-81
2021/04/13 07:07:14;;;;;;;23.67;16.90;;;3.80;98.00;;;;;;4891907;29;20893;-82
2021/04/13 07:09:47;;;;;;;21.47;15.33;;;3.80;97.70;;;;;;4896224;29;20238;-82
2021/04/13 07:12:22;;;;;;;18.03;12.67;;;3.80;97.80;;;;;;4893711;29;20273;-84
2021/04/13 07:14:57;;;;;;;19.90;15.27;;;3.80;97.70;;;;;;4889738;29;20341;-81
2021/04/13 07:17:33;;;;;;;24.63;15.93;;;3.90;97.50;;;;;;4878895;29;20257;-82
2021/04/13 07:20:09;;;;;;;11.30;8.93;;;3.80;98.50;;;;;;4896155;29;20627;-84
2021/04/13 07:22:41;;;;;;;11.10;8.07;;;3.80;98.90;;;;;;4891328;29;20207;-82
2021/04/13 07:25:15;;;;;;;9.40;6.23;;;3.80;99.10;;;;;;4896883;29;20344;-81
2021/04/13 07:27:47;;;;;;;8.90;7.03;;;3.70;98.20;;;;;;4887459;29;20581;-82
2021/04/13 07:30:26;;;;;;;8.37;6.53;;;3.70;99.30;;;;;;4893061;29;20235;-81
2021/04/13 07:32:55;;;;;;;7.83;6.80;;;3.80;98.60;;;;;;4894955;29;20211;-78
2021/04/13 07:35:24;;;;;;;7.13;5.83;;;3.60;98.50;;;;;;4893494;29;20223;-82
2021/04/13 07:37:53;;;;;;;7.53;5.50;;;3.60;99.30;;;;;;4895071;29;20211;-84
2021/04/13 07:40:26;;;;;;;7.13;4.20;;;3.50;98.70;;;;;;4887381;29;20328;-84
2021/04/13 07:42:58;;;;;;;6.80;5.13;;;3.40;99.20;;;;;;4910613;29;20198;-81
2021/04/13 07:45:32;;;;;;;5.47;4.97;;;3.40;99.50;;;;;;4897946;29;20673;-83
2021/04/13 07:48:17;;;;;;;6.27;5.13;;;3.30;99.90;;;;;;4886135;29;20222;-81
2021/04/13 07:51:04;;;;;;;6.37;5.03;;;3.30;99.90;;;;;;4893860;29;20937;-82
2021/04/13 07:53:37;;;;;;;7.97;5.87;;;3.30;99.90;;;;;;4889137;29;20850;-81
2021/04/13 07:56:20;;;;;;;6.93;5.33;;;3.30;99.90;;;;;;4889244;29;20222;-80
2021/04/13 07:58:58;;;;;;;7.70;6.13;;;3.30;99.90;;;;;;4891172;29;20616;-82
2021/04/13 08:01:27;;;;;;;8.73;7.10;;;3.40;99.90;;;;;;4896641;29;20223;-83
2021/04/13 08:03:54;;;;;;;5.77;5.10;;;3.40;99.90;;;;;;4890311;29;20203;-83
2021/04/13 08:06:44;;;;;;;7.60;5.67;;;3.40;99.90;;;;;;4892108;29;20203;-81
2021/04/13 08:09:29;;;;;;;4.70;4.27;;;3.40;99.90;;;;;;4896479;29;20712;-82
2021/04/13 08:12:09;;;;;;;6.70;5.00;;;3.40;99.90;;;;;;4893220;29;20234;-82
2021/04/13 08:14:39;;;;;;;5.83;4.80;;;3.40;99.90;;;;;;4905748;29;20286;-81
2021/04/13 08:17:13;;;;;;;6.17;4.70;;;3.40;99.90;;;;;;4898145;29;20235;-81
2021/04/13 08:19:42;;;;;;;7.13;5.00;;;3.30;99.90;;;;;;4897535;29;20274;-83
2021/04/13 08:22:13;;;;;;;9.93;8.10;;;3.30;99.90;;;;;;4891243;29;20668;-82
2021/04/13 08:24:44;;;;;;;13.63;9.77;;;3.50;99.90;;;;;;4891887;29;20203;-81
2021/04/13 08:27:44;;;;;;;7.27;4.73;;;3.30;99.90;;;;;;4901206;29;20516;-81
2021/04/13 08:30:29;;;;;;;3.83;3.50;;;3.20;99.90;;;;;;4891952;29;20342;-83
2021/04/13 08:33:07;;;;;;;4.63;3.47;;;3.20;99.90;;;;;;4879297;29;20225;-82
2021/04/13 08:36:00;;;;;;;3.10;2.80;;;3.30;99.90;;;;;;4896279;29;20215;-82
2021/04/13 08:38:44;;;;;;;2.40;2.20;;;3.30;99.90;;;;;;4886424;29;20220;-81
2021/04/13 08:41:28;;;;;;;2.73;2.53;;;3.30;99.90;;;;;;4887098;29;20246;-81
2021/04/13 08:44:03;;;;;;;2.63;2.43;;;3.20;99.90;;;;;;4885276;29;20586;-82
2021/04/13 08:46:47;;;;;;;2.60;2.40;;;3.10;99.90;;;;;;4883578;29;20290;-81
2021/04/13 08:49:37;;;;;;;5.57;3.37;;;3.10;99.90;;;;;;4901779;29;20455;-84
2021/04/13 08:52:32;;;;;;;3.23;2.93;;;3.10;99.90;;;;;;4894693;29;20616;-80
2021/04/13 08:55:11;;;;;;;3.73;3.33;;;3.20;99.90;;;;;;4887491;29;20278;-82
2021/04/13 08:57:41;;;;;;;3.50;3.20;;;3.10;99.90;;;;;;4895492;29;20211;-82
2021/04/13 09:00:39;;;;;;;2.93;2.60;;;3.20;99.90;;;;;;4892851;29;20214;-81
2021/04/13 09:03:11;;;;;;;3.60;3.07;;;3.30;99.90;;;;;;4892084;29;20917;-81
2021/04/13 09:05:48;;;;;;;2.90;2.60;;;3.20;99.90;;;;;;4894088;29;20213;-83
2021/04/13 09:08:28;;;;;;;3.20;2.90;;;3.20;99.90;;;;;;4900353;29;20237;-80
2021/04/13 09:11:19;;;;;;;3.37;3.03;;;3.20;99.90;;;;;;4898988;29;20230;-82
2021/04/13 09:14:00;;;;;;;4.03;3.63;;;3.20;99.90;;;;;;4888834;29;20224;-84
2021/04/13 09:16:30;;;;;;;5.43;3.90;;;3.30;99.90;;;;;;4880154;29;20270;-82
2021/04/13 09:19:01;;;;;;;3.63;3.33;;;3.30;99.90;;;;;;4893289;29;20397;-82
2021/04/13 09:21:42;;;;;;;5.80;5.20;;;3.40;99.90;;;;;;4883139;29;20219;-81
2021/04/13 09:24:18;;;;;;;7.83;5.93;;;3.40;99.90;;;;;;4889221;29;20207;-82
2021/04/13 09:27:01;;;;;;;5.10;4.60;;;3.50;99.90;;;;;;4891526;29;20466;-82
2021/04/13 09:29:40;;;;;;;7.10;5.73;;;3.60;99.90;;;;;;4904027;29;20207;-85
2021/04/13 09:32:31;;;;;;;4.70;4.40;;;3.60;99.90;;;;;;4900252;29;20649;-82
2021/04/13 09:35:23;;;;;;;5.97;5.07;;;3.50;97.80;;;;;;4887697;29;20603;-84
2021/04/13 09:38:00;;;;;;;9.33;8.17;;;3.60;99.20;;;;;;4880830;29;20215;-82
2021/04/13 09:40:37;;;;;;;7.97;5.40;;;3.70;99.80;;;;;;4896072;28;20669;-80
2021/04/13 09:43:15;;;;;;;7.63;6.93;;;3.70;99.30;;;;;;4890537;29;20791;-81
2021/04/13 09:46:01;;;;;;;5.07;4.40;;;3.70;98.60;;;;;;4882459;29;20334;-86
2021/04/13 09:48:53;;;;;;;7.27;6.67;;;3.70;98.80;;;;;;4887946;29;20745;-80
2021/04/13 09:51:25;;;;;;;7.03;6.43;;;3.60;98.10;;;;;;4888185;29;20246;-83
2021/04/13 09:54:18;;;;;;;6.00;5.40;;;3.60;99.30;;;;;;4893078;29;20215;-81
2021/04/13 09:57:22;;;;;;;8.80;7.67;;;3.50;99.30;;;;;;4861658;29;20399;-83
2021/04/13 10:00:15;;;;;;;9.23;8.33;;;3.50;99.30;;;;;;4882416;29;20215;-81
2021/04/13 10:02:55;;;;;;;12.70;11.40;;;3.60;99.90;;;;;;4883771;29;20560;-83
2021/04/13 10:05:27;;;;;;;11.17;10.07;;;3.70;99.90;;;;;;4886512;29;20211;-82
2021/04/13 10:07:59;;;;;;;13.30;11.20;;;3.70;99.90;;;;;;4878917;29;20210;-83
2021/04/13 10:10:34;;;;;;;13.67;11.47;;;3.90;99.90;;;;;;4887501;29;20709;-81
2021/04/13 10:13:43;;;;;;;12.10;9.80;;;3.90;99.90;;;;;;4887192;29;20285;-80
2021/04/13 10:16:22;;;;;;;8.33;7.53;;;4.00;99.90;;;;;;4877673;29;20227;-81
2021/04/13 10:19:08;;;;;;;11.37;9.93;;;4.00;99.90;;;;;;4887883;29;20299;-83
2021/04/13 10:22:05;;;;;;;10.83;5.40;;;4.10;99.00;;;;;;4876372;29;20213;-82
2021/04/13 10:25:05;;;;;;;6.43;5.37;;;4.10;96.80;;;;;;4881265;29;20199;-82
2021/04/13 10:27:58;;;;;;;4.80;4.40;;;4.20;99.00;;;;;;4882669;29;20319;-81
2021/04/13 10:30:51;;;;;;;4.80;3.70;;;4.30;98.40;;;;;;4844394;29;20250;-81
2021/04/13 10:33:52;;;;;;;8.17;5.00;;;4.50;98.30;;;;;;4882977;29;20220;-81
2021/04/13 10:36:51;;;;;;;6.57;5.13;;;4.60;97.40;;;;;;4884505;29;20218;-84
2021/04/13 10:39:44;;;;;;;8.07;7.27;;;4.80;95.30;;;;;;4887948;29;20216;-80
2021/04/13 10:42:40;;;;;;;10.33;9.27;;;4.80;95.20;;;;;;4892882;29;20214;-81
2021/04/13 10:45:54;;;;;;;13.40;9.97;;;4.80;94.90;;;;;;4884344;29;20491;-80
2021/04/13 10:48:46;;;;;;;13.57;12.27;;;4.80;95.50;;;;;;4814012;29;20743;-82
2021/04/13 10:51:45;;;;;;;19.07;17.07;;;4.90;96.50;;;;;;4818017;29;20234;-82
2021/04/13 10:54:53;;;;;;;10.63;8.50;;;5.10;97.30;;;;;;4875840;29;20424;-82
2021/04/13 10:57:56;;;;;;;15.70;13.37;;;5.10;92.70;;;;;;4881120;29;20215;-80
2021/04/13 11:00:34;;;;;;;16.83;13.37;;;5.10;93.80;;;;;;4861141;29;20230;-83
2021/04/13 11:03:42;;;;;;;13.77;12.33;;;5.10;93.20;;;;;;4887217;29;20584;-80
2021/04/13 11:06:37;;;;;;;15.33;12.67;;;5.20;92.00;;;;;;4885140;29;20469;-82
2021/04/13 11:09:40;;;;;;;14.40;12.90;;;5.30;92.10;;;;;;4895886;29;20239;-84
2021/04/13 11:12:30;;;;;;;14.90;11.80;;;5.30;92.70;;;;;;4906521;29;20494;-81
2021/04/13 11:15:38;;;;;;;12.90;11.47;;;5.30;91.20;;;;;;4907690;29;20599;-83
2021/04/13 11:18:59;;;;;;;13.03;11.10;;;5.40;91.60;;;;;;4910902;29;20558;-82
2021/04/13 11:22:06;;;;;;;15.27;11.83;;;5.50;91.70;;;;;;4892221;29;20553;-82
2021/04/13 11:24:46;;;;;;;11.40;10.30;;;5.50;91.70;;;;;;4909106;29;20221;-84
2021/04/13 11:27:58;;;;;;;10.93;9.63;;;5.60;91.00;;;;;;4905564;29;20211;-81
2021/04/13 11:31:20;;;;;;;10.07;9.07;;;5.70;90.50;;;;;;4827198;29;20255;-79
2021/04/13 11:34:24;;;;;;;9.27;7.60;;;5.60;90.10;;;;;;4893000;29;20716;-84
2021/04/13 11:37:25;;;;;;;12.93;10.80;;;5.50;90.30;;;;;;4878139;29;20217;-82
2021/04/13 11:40:10;;;;;;;13.93;12.20;;;5.50;90.40;;;;;;4895501;29;20200;-82
2021/04/13 11:42:40;;;;;;;12.70;10.57;;;5.50;90.60;;;;;;4905306;29;20190;-81
2021/04/13 11:45:17;;;;;;;10.67;9.47;;;5.60;91.00;;;;;;4914928;28;20207;-83
2021/04/13 11:47:53;;;;;;;12.13;9.57;;;5.60;90.70;;;;;;4913799;28;20322;-83
2021/04/13 11:50:29;;;;;;;11.77;10.53;;;5.70;90.40;;;;;;4909430;28;20269;-82
2021/04/13 11:53:03;;;;;;;11.20;9.13;;;5.80;90.20;;;;;;4910740;29;20319;-81
2021/04/13 11:55:53;;;;;;;12.10;9.80;;;5.70;89.60;;;;;;4894118;29;20836;-80
2021/04/13 11:58:24;;;;;;;12.60;11.30;;;5.80;90.20;;;;;;4884503;29;20215;-81
2021/04/13 12:00:52;;;;;;;14.10;11.90;;;5.90;91.20;;;;;;4892057;29;20203;-82
2021/04/13 12:03:35;;;;;;;11.10;10.10;;;5.90;90.80;;;;;;4886922;29;20231;-82
2021/04/13 12:06:07;;;;;;;12.87;11.53;;;5.90;89.30;;;;;;4886386;29;20637;-82
2021/04/13 12:08:59;;;;;;;9.73;8.77;;;5.90;90.10;;;;;;4894339;29;20229;-82
2021/04/13 12:11:47;;;;;;;17.73;14.50;;;6.00;89.60;;;;;;4893166;29;20345;-83
2021/04/13 12:14:40;;;;;;;12.77;11.47;;;6.00;90.30;;;;;;4891318;29;20232;-81
2021/04/13 12:17:40;;;;;;;12.90;9.57;;;5.90;88.60;;;;;;4882604;29;20211;-82
2021/04/13 12:20:39;;;;;;;15.73;12.70;;;5.90;89.10;;;;;;4888981;29;20223;-83
2021/04/13 12:23:44;;;;;;;15.83;12.27;;;6.10;88.80;;;;;;4895830;29;20463;-82
2021/04/13 12:26:30;;;;;;;15.23;13.03;;;6.10;87.40;;;;;;4895903;29;20289;-83
2021/04/13 12:28:58;;;;;;;13.07;8.47;;;6.00;87.20;;;;;;4894765;29;20559;-82
2021/04/13 12:31:26;;;;;;;11.13;9.30;;;6.00;87.00;;;;;;4891855;29;20241;-82
2021/04/13 12:34:03;;;;;;;9.43;7.43;;;6.00;87.00;;;;;;4904728;29;20374;-82
2021/04/13 12:36:49;;;;;;;16.30;13.80;;;5.90;87.70;;;;;;4900630;29;20195;-82
2021/04/13 12:39:54;;;;;;;14.97;13.47;;;6.00;88.50;;;;;;4913488;29;20209;-84
2021/04/13 12:42:41;;;;;;;14.07;11.60;;;6.20;88.40;;;;;;4904454;29;20633;-80
2021/04/13 12:45:52;;;;;;;13.70;11.57;;;6.20;86.50;;;;;;4894287;29;20211;-82
2021/04/13 12:48:28;;;;;;;9.50;8.07;;;6.20;86.50;;;;;;4892659;29;20572;-83
2021/04/13 12:51:28;;;;;;;8.10;7.30;;;6.10;85.90;;;;;;4895886;29;20229;-83
2021/04/13 12:54:15;;;;;;;11.67;8.43;;;6.20;84.80;;;;;;4871563;29;20230;-82
2021/04/13 12:56:50;;;;;;;18.03;10.37;;;6.20;85.00;;;;;;4893679;29;20207;-82
2021/04/13 12:59:24;;;;;;;14.03;12.23;;;6.30;85.80;;;;;;4911052;29;20291;-84
2021/04/13 13:01:52;;;;;;;12.70;9.60;;;6.40;85.40;;;;;;4912288;29;20214;-83
2021/04/13 13:04:22;;;;;;;15.20;10.90;;;6.50;86.00;;;;;;4898014;29;20215;-82
2021/04/13 13:06:53;;;;;;;10.53;8.43;;;6.60;85.50;;;;;;4889628;29;20715;-84
2021/04/13 13:09:31;;;;;;;15.90;10.90;;;6.60;84.70;;;;;;4890353;29;20250;-83
2021/04/13 13:12:03;;;;;;;11.07;9.87;;;6.70;85.40;;;;;;4894760;29;20265;-84
2021/04/13 13:14:37;;;;;;;12.13;9.00;;;6.70;83.90;;;;;;4895586;29;20213;-83
2021/04/13 13:17:06;;;;;;;9.60;8.47;;;6.80;84.30;;;;;;4884822;29;20580;-84
2021/04/13 13:19:43;;;;;;;7.67;5.73;;;6.80;84.00;;;;;;4893770;29;20590;-84
2021/04/13 13:22:15;;;;;;;8.17;7.10;;;6.90;83.80;;;;;;4903198;29;20208;-84
2021/04/13 13:24:43;;;;;;;8.13;7.33;;;6.90;84.00;;;;;;4899807;29;20211;-83
2021/04/13 13:27:15;;;;;;;10.97;6.80;;;6.90;83.90;;;;;;4900895;29;20201;-84
2021/04/13 13:29:45;;;;;;;10.67;8.30;;;7.00;83.90;;;;;;4904195;29;20415;-85
2021/04/13 13:32:16;;;;;;;8.97;7.73;;;6.90;84.10;;;;;;4906066;29;20628;-83
2021/04/13 13:34:44;;;;;;;11.47;7.80;;;6.90;84.20;;;;;;4901399;29;20209;-85
2021/04/13 13:37:13;;;;;;;10.53;6.77;;;7.00;84.00;;;;;;4899142;29;20615;-82
2021/04/13 13:39:42;;;;;;;7.87;6.80;;;6.90;84.10;;;;;;4879583;29;20818;-83
2021/04/13 13:42:14;;;;;;;11.70;7.40;;;6.90;83.80;;;;;;4892133;29;20207;-83